createdAt,value
2018-08-23T07:27:24.212Z,4.10
2018-08-23T07:29:00.152Z,4.33
2018-08-23T07:30:36.116Z,4.33
2018-08-23T07:32:17.266Z,4.57
2018-08-23T07:33:53.972Z,4.80
2018-08-23T07:35:35.176Z,4.53
2018-08-23T07:37:17.199Z,4.33
2018-08-23T07:38:54.021Z,4.97
2018-08-23T07:40:30.104Z,4.50
2018-08-23T07:42:06.017Z,4.77
2018-08-23T07:43:42.536Z,4.30
2018-08-23T07:45:18.609Z,4.10
2018-08-23T07:46:55.462Z,4.60
2018-08-23T07:48:31.288Z,4.37
2018-08-23T07:50:07.531Z,3.93
2018-08-23T07:51:43.398Z,4.50
2018-08-23T07:53:20.163Z,4.00
2018-08-23T07:54:59.092Z,4.33
2018-08-23T07:56:34.848Z,4.33
2018-08-23T07:58:10.640Z,4.30
2018-08-23T07:59:46.370Z,4.20
2018-08-23T08:01:31.486Z,4.30
2018-08-23T08:03:08.502Z,4.20
2018-08-23T08:04:44.582Z,4.23
2018-08-23T08:06:25.721Z,5.77
2018-08-23T08:08:02.080Z,5.20
2018-08-23T08:09:43.188Z,4.23
2018-08-23T08:11:19.529Z,4.10
2018-08-23T08:12:55.591Z,3.90
2018-08-23T08:14:38.295Z,4.10
2018-08-23T08:16:17.364Z,3.80
2018-08-23T08:17:53.982Z,3.67
2018-08-23T08:19:37.893Z,4.50
2018-08-23T08:21:17.911Z,3.87
2018-08-23T08:22:54.125Z,3.90
2018-08-23T08:24:31.210Z,4.10
2018-08-23T08:26:08.169Z,4.10
2018-08-23T08:27:45.619Z,4.40
2018-08-23T08:29:28.705Z,4.10
2018-08-23T08:31:05.781Z,3.90
2018-08-23T08:32:42.856Z,4.00
2018-08-23T08:34:19.564Z,3.83
2018-08-23T08:36:04.317Z,3.70
2018-08-23T08:37:42.141Z,3.77
2018-08-23T08:39:19.132Z,4.07
2018-08-23T08:40:56.741Z,3.50
2018-08-23T08:42:33.921Z,3.60
2018-08-23T08:44:10.385Z,3.43
2018-08-23T08:45:46.777Z,4.07
2018-08-23T08:47:22.924Z,3.60
2018-08-23T08:48:59.157Z,4.10
2018-08-23T08:50:39.631Z,3.93
2018-08-23T08:52:16.861Z,3.40
2018-08-23T08:53:59.443Z,3.60
2018-08-23T08:55:35.565Z,3.93
2018-08-23T08:57:11.431Z,3.97
2018-08-23T08:58:48.165Z,3.80
2018-08-23T09:00:24.767Z,3.60
2018-08-23T09:02:02.814Z,3.37
2018-08-23T09:03:40.356Z,3.70
2018-08-23T09:05:17.054Z,3.55
2018-08-23T09:06:54.590Z,3.40
2018-08-23T09:08:31.747Z,3.10
2018-08-23T09:10:09.405Z,3.60
2018-08-23T09:11:45.952Z,3.33
2018-08-23T09:13:28.259Z,3.50
2018-08-23T09:15:04.402Z,3.05
2018-08-23T09:16:40.161Z,3.40
2018-08-23T09:18:16.204Z,3.67
2018-08-23T09:20:05.500Z,3.52
2018-08-23T09:21:45.796Z,3.37
2018-08-23T09:23:22.077Z,3.15
2018-08-23T09:24:58.057Z,3.25
2018-08-23T09:26:38.604Z,2.87
2018-08-23T09:28:16.929Z,3.30
2018-08-23T09:29:53.293Z,3.00
2018-08-23T09:31:29.432Z,3.25
2018-08-23T09:33:08.293Z,3.40
2018-08-23T09:34:44.039Z,3.02
2018-08-23T09:36:20.158Z,4.87
2018-08-23T09:37:58.394Z,14.98
2018-08-23T09:39:34.825Z,7.20
2018-08-23T09:41:11.303Z,3.72
2018-08-23T09:42:49.159Z,4.95
2018-08-23T09:44:26.757Z,11.93
2018-08-23T09:46:03.576Z,6.55
2018-08-23T09:47:42.305Z,5.22
2018-08-23T09:49:22.975Z,5.40
2018-08-23T09:50:59.848Z,8.88
2018-08-23T09:52:40.002Z,4.65
2018-08-23T09:54:20.660Z,5.95
2018-08-23T09:55:57.961Z,4.75
2018-08-23T09:57:36.155Z,4.58
2018-08-23T09:59:25.316Z,3.33
2018-08-23T10:01:08.407Z,4.00
2018-08-23T10:02:51.854Z,4.28
2018-08-23T10:04:33.338Z,3.55
2018-08-23T10:06:14.606Z,3.40
2018-08-23T10:07:55.897Z,3.75
2018-08-23T10:09:36.631Z,3.60
2018-08-23T10:11:20.787Z,3.70
2018-08-23T10:13:02.453Z,3.50
2018-08-23T10:14:43.898Z,3.65
2018-08-23T10:16:25.837Z,3.20
2018-08-23T10:18:06.959Z,3.55
2018-08-23T10:19:48.452Z,3.67
2018-08-23T10:21:29.776Z,3.37
2018-08-23T10:23:11.396Z,3.45
2018-08-23T10:24:47.213Z,3.30
2018-08-23T10:26:30.791Z,3.00
2018-08-23T10:28:07.298Z,3.20
2018-08-23T10:29:42.963Z,2.98
2018-08-23T10:31:18.977Z,3.15
2018-08-23T10:32:54.924Z,3.22
2018-08-23T10:34:32.150Z,3.30
2018-08-23T10:36:08.239Z,3.20
2018-08-23T10:37:44.531Z,3.52
2018-08-23T10:39:20.227Z,3.45
2018-08-23T10:41:02.302Z,3.05
2018-08-23T10:42:37.955Z,3.37
2018-08-23T10:44:14.660Z,2.98
2018-08-23T10:45:51.091Z,3.05
2018-08-23T10:47:32.175Z,3.05
2018-08-23T10:49:07.786Z,3.30
2018-08-23T10:50:43.885Z,3.72
2018-08-23T10:52:21.340Z,3.40
2018-08-23T10:53:59.013Z,3.70
2018-08-23T10:55:34.701Z,3.33
2018-08-23T10:57:15.840Z,3.42
2018-08-23T10:58:51.673Z,3.65
2018-08-23T11:00:27.766Z,2.92
2018-08-23T11:02:03.590Z,3.10
2018-08-23T11:03:40.294Z,3.40
2018-08-23T11:05:17.059Z,3.22
2018-08-23T11:07:00.628Z,3.45
2018-08-23T11:08:40.232Z,3.40
2018-08-23T11:10:21.705Z,3.30
2018-08-23T11:11:57.699Z,3.42
2018-08-23T11:13:39.176Z,3.52
2018-08-23T11:15:21.609Z,3.47
2018-08-23T11:17:02.997Z,3.42
2018-08-23T11:18:44.322Z,3.15
2018-08-23T11:20:27.751Z,3.50
2018-08-23T11:22:06.263Z,2.90
2018-08-23T11:23:46.272Z,3.33
2018-08-23T11:25:25.267Z,3.40
2018-08-23T11:27:01.326Z,3.47
2018-08-23T11:28:38.412Z,3.60
2018-08-23T11:30:14.294Z,3.20
2018-08-23T11:31:50.623Z,3.25
2018-08-23T11:33:26.230Z,2.95
2018-08-23T11:35:01.957Z,3.58
2018-08-23T11:36:37.663Z,3.40
2018-08-23T11:38:13.368Z,3.22
2018-08-23T11:39:49.081Z,3.72
2018-08-23T11:41:24.722Z,3.30
2018-08-23T11:43:00.574Z,3.15
2018-08-23T11:44:36.673Z,3.40
2018-08-23T11:46:17.511Z,3.52
2018-08-23T11:47:53.140Z,3.55
2018-08-23T11:49:29.181Z,3.20
2018-08-23T11:51:09.034Z,3.15
2018-08-23T11:52:46.760Z,3.12
2018-08-23T11:54:22.552Z,3.00
2018-08-23T11:55:58.774Z,3.22
2018-08-23T11:57:39.190Z,3.00
2018-08-23T11:59:19.863Z,3.15
2018-08-23T12:01:02.130Z,3.30
2018-08-23T12:02:41.324Z,3.22
2018-08-23T12:04:16.963Z,3.27
2018-08-23T12:06:02.185Z,3.30
2018-08-23T12:07:42.491Z,3.12
2018-08-23T12:09:18.125Z,3.50
2018-08-23T12:10:54.905Z,2.95
2018-08-23T12:12:31.749Z,3.10
2018-08-23T12:14:07.464Z,3.10
2018-08-23T12:17:32.975Z,3.05
2018-08-23T12:19:14.695Z,3.27
2018-08-23T12:20:50.204Z,3.10
2018-08-23T12:22:32.429Z,3.10
2018-08-23T12:24:09.771Z,3.60
2018-08-23T12:25:45.654Z,3.12
2018-08-23T12:27:24.952Z,2.98
2018-08-23T12:29:06.315Z,3.00
2018-08-23T12:30:42.485Z,3.42
2018-08-23T12:32:18.270Z,3.05
2018-08-23T12:33:55.121Z,3.10
2018-08-23T12:35:32.828Z,3.40
2018-08-23T12:37:16.326Z,3.10
2018-08-23T12:38:57.528Z,2.62
2018-08-23T12:40:40.984Z,2.70
2018-08-23T12:42:22.957Z,2.77
2018-08-23T12:44:00.159Z,2.60
2018-08-23T12:45:42.373Z,3.33
2018-08-23T12:47:19.230Z,3.25
2018-08-23T12:48:59.306Z,3.27
2018-08-23T12:50:39.750Z,4.10
2018-08-23T12:52:16.389Z,3.37
2018-08-23T12:53:57.158Z,3.30
2018-08-23T12:55:34.352Z,3.08
2018-08-23T12:57:14.422Z,3.25
2018-08-23T12:58:50.543Z,3.00
2018-08-23T13:00:26.976Z,3.30
2018-08-23T13:02:03.245Z,3.55
2018-08-23T13:03:41.643Z,3.30
2018-08-23T13:05:20.504Z,2.90
2018-08-23T13:06:56.710Z,3.37
2018-08-23T13:08:32.420Z,2.98
2018-08-23T13:10:08.112Z,3.52
2018-08-23T13:11:44.596Z,3.08
2018-08-23T13:13:21.268Z,3.45
2018-08-23T13:14:57.157Z,3.10
2018-08-23T13:16:33.323Z,3.20
2018-08-23T13:18:10.245Z,3.37
2018-08-23T13:19:46.879Z,3.27
2018-08-23T13:21:22.915Z,3.08
2018-08-23T13:22:59.206Z,3.00
2018-08-23T13:24:41.178Z,2.92
2018-08-23T13:26:16.932Z,3.05
2018-08-23T13:27:53.660Z,2.87
2018-08-23T13:29:29.305Z,2.90
2018-08-23T13:31:05.521Z,2.95
2018-08-23T13:32:41.619Z,3.40
2018-08-23T13:34:17.333Z,2.90
2018-08-23T13:35:52.978Z,3.65
2018-08-23T13:37:29.134Z,3.45
2018-08-23T13:39:08.346Z,3.60
2018-08-23T13:40:44.039Z,3.10
2018-08-23T13:42:21.174Z,3.20
2018-08-23T13:43:56.820Z,3.08
2018-08-23T13:45:32.617Z,3.47
2018-08-23T13:47:08.352Z,3.30
2018-08-23T13:48:44.428Z,3.62
2018-08-23T13:50:20.707Z,3.83
2018-08-23T13:51:58.419Z,3.67
2018-08-23T13:53:34.285Z,3.70
2018-08-23T13:55:10.052Z,3.10
2018-08-23T13:56:46.176Z,4.47
2018-08-23T13:58:25.493Z,3.80
2018-08-23T14:00:09.970Z,4.30
2018-08-23T14:01:48.175Z,4.70
2018-08-23T14:03:23.945Z,4.28
2018-08-23T14:04:59.935Z,4.50
2018-08-23T14:06:37.633Z,4.33
2018-08-23T14:08:13.522Z,4.27
2018-08-23T14:09:52.907Z,4.20
2018-08-23T14:11:30.263Z,4.60
2018-08-23T14:13:07.012Z,4.40
2018-08-23T14:14:46.287Z,4.40
2018-08-23T14:16:28.787Z,4.70
2018-08-23T14:18:15.773Z,4.80
2018-08-23T14:19:51.837Z,4.97
2018-08-23T14:21:27.496Z,5.07
2018-08-23T14:23:03.368Z,5.73
2018-08-23T14:24:39.892Z,4.80
2018-08-23T14:26:15.506Z,4.60
2018-08-23T14:27:51.330Z,5.30
2018-08-23T14:29:27.471Z,4.50
2018-08-23T14:31:03.040Z,4.70
2018-08-23T14:32:44.067Z,4.57
2018-08-23T14:34:20.927Z,4.27
2018-08-23T14:35:56.798Z,4.40
2018-08-23T14:37:32.777Z,4.10
2018-08-23T14:39:10.088Z,4.43
2018-08-23T14:40:47.245Z,4.20
2018-08-23T14:42:23.119Z,4.83
2018-08-23T14:44:00.271Z,4.57
2018-08-23T14:45:37.105Z,4.23
2018-08-23T14:47:18.461Z,4.53
2018-08-23T14:48:55.015Z,4.20
2018-08-23T14:50:31.144Z,4.97
2018-08-23T14:52:11.018Z,4.27
2018-08-23T14:53:49.539Z,4.03
2018-08-23T14:55:30.814Z,4.30
2018-08-23T14:57:14.369Z,4.43
2018-08-23T14:58:50.232Z,4.13
2018-08-23T15:00:26.968Z,4.40
2018-08-23T15:02:02.636Z,4.37
2018-08-23T15:03:38.161Z,4.53
2018-08-23T15:05:14.369Z,4.20
2018-08-23T15:06:52.023Z,4.37
2018-08-23T15:08:28.762Z,4.43
2018-08-23T15:10:07.842Z,5.20
2018-08-23T15:11:43.793Z,6.83
2018-08-23T15:13:19.339Z,6.73
2018-08-23T15:14:54.965Z,6.70
2018-08-23T15:16:30.669Z,5.43
2018-08-23T15:18:06.434Z,6.93
2018-08-23T15:19:41.940Z,4.83
2018-08-23T15:21:17.439Z,4.23
2018-08-23T15:22:53.052Z,3.87
2018-08-23T15:24:28.614Z,4.00
2018-08-23T15:26:04.260Z,4.23
2018-08-23T15:27:39.744Z,4.00
2018-08-23T15:29:15.249Z,4.23
2018-08-23T15:30:50.808Z,4.10
2018-08-23T15:32:26.336Z,3.80
2018-08-23T15:34:01.842Z,4.00
2018-08-23T15:35:37.422Z,4.23
2018-08-23T15:37:12.984Z,4.40
2018-08-23T15:38:48.599Z,3.83
2018-08-23T15:40:24.140Z,4.23
2018-08-23T15:43:41.373Z,3.87
2018-08-23T15:45:18.392Z,4.07
2018-08-23T15:46:54.143Z,4.30
2018-08-23T15:48:29.643Z,4.03
2018-08-23T15:50:05.190Z,4.20
2018-08-23T15:51:41.359Z,3.53
2018-08-23T15:53:17.253Z,3.93
2018-08-23T15:54:52.852Z,3.90
2018-08-23T15:56:28.439Z,3.97
2018-08-23T15:58:04.124Z,3.70
2018-08-23T15:59:39.599Z,3.97
2018-08-23T16:01:15.160Z,4.07
2018-08-23T16:02:53.620Z,3.53
2018-08-23T16:04:29.205Z,4.13
2018-08-23T16:06:04.779Z,3.67
2018-08-23T16:07:40.334Z,3.73
2018-08-23T16:09:16.415Z,3.70
2018-08-23T16:10:51.938Z,3.90
2018-08-23T16:12:27.523Z,4.00
2018-08-23T16:14:03.484Z,3.60
2018-08-23T16:15:39.128Z,3.70
2018-08-23T16:17:20.035Z,3.50
2018-08-23T16:19:01.125Z,3.73
2018-08-23T16:20:42.045Z,4.03
2018-08-23T16:22:17.669Z,3.90
2018-08-23T16:23:53.364Z,3.50
2018-08-23T16:25:28.909Z,3.40
2018-08-23T16:27:05.609Z,4.30
2018-08-23T16:28:41.147Z,4.10
2018-08-23T16:30:16.714Z,4.07
2018-08-23T16:31:52.331Z,4.10
2018-08-23T16:33:27.822Z,3.87
2018-08-23T16:35:03.407Z,4.13
2018-08-23T16:36:39.153Z,3.90
2018-08-23T16:38:14.651Z,4.20
2018-08-23T16:39:50.143Z,3.33
2018-08-23T16:41:31.639Z,4.10
2018-08-23T16:43:08.432Z,4.30
2018-08-23T16:44:44.001Z,3.90
2018-08-23T16:46:19.587Z,4.10
2018-08-23T16:47:55.112Z,3.80
2018-08-23T16:49:30.696Z,3.90
2018-08-23T16:51:06.419Z,3.60
2018-08-23T16:52:42.089Z,4.10
2018-08-23T16:54:18.021Z,3.50
2018-08-23T16:55:53.537Z,3.97
2018-08-23T16:57:29.197Z,3.87
2018-08-23T16:59:04.896Z,3.73
2018-08-23T17:00:40.451Z,3.50
2018-08-23T17:02:15.986Z,3.70
2018-08-23T17:03:54.629Z,4.03
2018-08-23T17:05:30.188Z,4.10
2018-08-23T17:07:06.505Z,4.07
2018-08-23T17:08:42.049Z,4.10
2018-08-23T17:10:18.023Z,4.50
2018-08-23T17:11:53.713Z,5.00
2018-08-23T17:13:35.179Z,4.27
2018-08-23T17:15:15.163Z,4.40
2018-08-23T17:16:56.446Z,4.10
2018-08-23T17:18:32.888Z,4.83
2018-08-23T17:20:10.496Z,4.67
2018-08-23T17:21:46.545Z,4.50
2018-08-23T17:23:23.125Z,4.67
2018-08-23T17:24:59.824Z,4.73
2018-08-23T17:26:35.744Z,4.13
2018-08-23T17:28:11.662Z,3.60
2018-08-23T17:29:48.069Z,4.20
2018-08-23T17:31:24.252Z,3.80
2018-08-23T17:32:59.743Z,4.30
2018-08-23T17:34:36.198Z,4.40
2018-08-23T17:36:11.702Z,3.90
2018-08-23T17:37:48.550Z,4.00
2018-08-23T17:39:24.786Z,3.93
2018-08-23T17:41:00.649Z,4.07
2018-08-23T17:42:41.455Z,4.07
2018-08-23T17:44:17.112Z,4.13
2018-08-23T17:45:52.670Z,4.40
2018-08-23T17:47:28.200Z,4.63
2018-08-23T17:49:04.051Z,4.13
2018-08-23T17:50:39.624Z,3.97
2018-08-23T17:52:15.220Z,4.00
2018-08-23T17:53:50.838Z,3.63
2018-08-23T17:55:37.419Z,4.17
2018-08-23T17:57:13.381Z,3.90
2018-08-23T17:58:48.962Z,3.87
2018-08-23T18:00:25.623Z,4.10
2018-08-23T18:02:02.973Z,4.13
2018-08-23T18:03:38.734Z,4.47
2018-08-23T18:05:14.320Z,5.17
2018-08-23T18:06:53.318Z,4.37
2018-08-23T18:08:29.052Z,4.00
2018-08-23T18:10:08.134Z,4.17
2018-08-23T18:11:44.447Z,4.50
2018-08-23T18:13:27.409Z,4.00
2018-08-23T18:15:10.839Z,4.17
2018-08-23T18:16:55.631Z,4.30
2018-08-23T18:18:38.665Z,4.10
2018-08-23T18:20:14.573Z,4.00
2018-08-23T18:21:51.918Z,4.30
2018-08-23T18:23:27.821Z,3.83
2018-08-23T18:25:04.751Z,4.33
2018-08-23T18:26:43.242Z,4.20
2018-08-23T18:28:22.618Z,4.33
2018-08-23T18:30:00.155Z,3.87
2018-08-23T18:31:38.567Z,4.20
2018-08-23T19:25:07.517Z,4.80
2018-08-23T19:26:43.715Z,4.70
2018-08-23T19:30:03.024Z,3.87
2018-08-23T19:31:40.178Z,3.93
2018-08-23T19:33:17.912Z,4.47
2018-08-23T19:34:54.088Z,4.27
2018-08-23T19:36:30.636Z,4.50
2018-08-23T19:38:07.891Z,4.57
2018-08-23T19:39:44.671Z,4.53
2018-08-23T19:41:20.732Z,4.50
2018-08-23T19:42:58.777Z,4.17
2018-08-23T19:44:40.009Z,4.00
2018-08-23T19:46:22.819Z,4.20
2018-08-23T19:47:58.887Z,4.73
2018-08-23T19:49:41.879Z,4.43
2018-08-23T19:51:18.963Z,5.03
2018-08-23T19:52:54.898Z,4.70
2018-08-23T19:54:31.558Z,4.80
2018-08-23T19:56:09.025Z,4.40
2018-08-23T19:57:44.950Z,4.50
2018-08-23T19:59:20.659Z,4.30
2018-08-23T20:00:56.598Z,4.60
2018-08-23T20:02:32.782Z,5.03
2018-08-23T20:04:08.905Z,4.23
2018-08-23T20:05:52.960Z,4.60
2018-08-23T20:07:29.517Z,4.40
2018-08-23T20:09:11.252Z,4.10
2018-08-23T20:10:49.452Z,3.80
2018-08-23T20:12:32.640Z,4.23
2018-08-23T20:14:09.231Z,4.60
2018-08-23T20:15:46.984Z,4.27
2018-08-23T20:17:22.556Z,4.20
2018-08-23T20:18:58.312Z,4.10
2018-08-23T20:20:38.194Z,4.20
2018-08-23T20:22:14.067Z,4.00
2018-08-23T20:23:49.844Z,4.10
2018-08-23T20:25:32.044Z,3.97
2018-08-23T20:29:08.951Z,4.47
2018-08-23T20:30:45.041Z,4.60
2018-08-23T20:32:21.452Z,4.70
2018-08-23T20:34:00.235Z,4.07
2018-08-23T20:35:36.303Z,4.50
2018-08-23T20:37:13.038Z,4.40
2018-08-23T20:38:48.719Z,4.30
2018-08-23T20:40:25.318Z,4.37
2018-08-23T20:42:00.892Z,4.60
2018-08-23T20:43:36.406Z,4.47
2018-08-23T20:45:21.293Z,4.63
2018-08-23T20:46:56.966Z,4.80
2018-08-23T20:48:33.732Z,4.37
2018-08-23T20:50:09.403Z,4.83
2018-08-23T20:51:44.984Z,4.83
2018-08-23T20:53:20.556Z,4.07
2018-08-23T20:54:56.152Z,4.70
2018-08-23T20:56:31.802Z,5.07
2018-08-23T20:58:09.879Z,4.03
2018-08-23T20:59:45.394Z,4.40
2018-08-23T21:01:20.982Z,4.60
2018-08-23T21:02:56.573Z,4.43
2018-08-23T21:04:32.633Z,4.63
2018-08-23T21:06:09.036Z,4.97
2018-08-23T21:07:44.736Z,4.70
2018-08-23T21:09:21.938Z,4.70
2018-08-23T21:10:57.482Z,4.50
2018-08-23T21:12:34.812Z,5.10
2018-08-23T21:14:11.073Z,4.67
2018-08-23T21:15:49.614Z,4.80
2018-08-23T21:17:25.423Z,4.20
2018-08-23T21:19:01.886Z,4.53
2018-08-23T21:20:37.552Z,4.97
2018-08-23T21:22:13.563Z,5.00
2018-08-23T21:23:49.164Z,4.90
2018-08-23T21:25:24.762Z,4.37
2018-08-23T21:27:00.308Z,4.60
2018-08-23T21:28:36.262Z,5.10
2018-08-23T21:30:11.985Z,4.93
2018-08-23T21:31:47.537Z,4.70
2018-08-23T21:33:23.116Z,5.10
2018-08-23T21:34:58.644Z,5.00
2018-08-23T21:36:34.248Z,5.20
2018-08-23T21:38:09.796Z,5.13
2018-08-23T21:39:45.300Z,5.23
2018-08-23T21:41:20.824Z,4.70
2018-08-23T21:42:56.618Z,5.03
2018-08-23T21:44:34.066Z,4.60
2018-08-23T21:46:10.568Z,4.63
2018-08-23T21:47:46.316Z,4.93
2018-08-23T21:49:22.075Z,4.60
2018-08-23T21:50:58.311Z,5.00
2018-08-23T21:52:34.532Z,4.47
2018-08-23T21:54:12.362Z,5.10
2018-08-23T21:55:48.751Z,4.87
2018-08-23T21:57:24.595Z,4.90
2018-08-23T21:59:03.885Z,4.80
2018-08-23T22:00:45.955Z,5.30
2018-08-23T22:02:22.470Z,5.00
2018-08-23T22:03:58.204Z,4.50
2018-08-23T22:05:34.444Z,4.70
2018-08-23T22:07:10.058Z,4.60
2018-08-23T22:08:45.695Z,4.73
2018-08-23T22:10:22.755Z,5.23
2018-08-23T22:11:58.615Z,5.03
2018-08-23T22:13:34.205Z,4.80
2018-08-23T22:15:11.064Z,4.33
2018-08-23T22:16:46.779Z,5.13
2018-08-23T22:18:22.890Z,4.57
2018-08-23T22:19:58.495Z,5.00
2018-08-23T22:21:34.155Z,4.70
2018-08-23T22:23:09.783Z,5.07
2018-08-23T22:24:45.382Z,5.37
2018-08-23T22:26:33.376Z,5.37
2018-08-23T22:28:09.207Z,4.90
2018-08-23T22:29:45.651Z,4.90
2018-08-23T22:31:22.456Z,4.90
2018-08-23T22:32:57.986Z,4.60
2018-08-23T22:34:33.526Z,4.67
2018-08-23T22:36:09.108Z,5.63
2018-08-23T22:37:44.679Z,5.20
2018-08-23T22:39:20.392Z,5.53
2018-08-23T22:40:55.946Z,5.03
2018-08-23T22:42:31.442Z,5.40
2018-08-23T22:44:07.077Z,5.67
2018-08-23T22:45:42.723Z,5.20
2018-08-23T22:47:18.439Z,5.20
2018-08-23T22:48:53.971Z,5.57
2018-08-23T22:50:29.511Z,5.20
2018-08-23T22:52:05.310Z,5.10
2018-08-23T22:53:42.755Z,5.17
2018-08-23T22:55:19.110Z,5.43
2018-08-23T22:56:54.622Z,5.27
2018-08-23T22:58:30.670Z,5.20
2018-08-23T23:00:06.803Z,5.03
2018-08-23T23:01:42.513Z,5.27
2018-08-23T23:03:23.825Z,5.60
2018-08-23T23:04:59.740Z,5.80
2018-08-23T23:06:35.310Z,6.00
2018-08-23T23:08:10.943Z,5.70
2018-08-23T23:09:46.830Z,5.57
2018-08-23T23:11:23.908Z,5.80
2018-08-23T23:12:59.698Z,6.10
2018-08-23T23:14:35.220Z,6.73
2018-08-23T23:16:10.900Z,6.23
2018-08-23T23:17:46.432Z,6.20
2018-08-23T23:19:23.226Z,6.00
2018-08-23T23:20:58.798Z,5.83
2018-08-23T23:22:34.433Z,5.57
2018-08-23T23:24:15.540Z,5.60
2018-08-23T23:25:51.450Z,5.80
2018-08-23T23:27:27.064Z,6.00
2018-08-23T23:29:02.761Z,5.40
2018-08-23T23:30:38.323Z,5.63
2018-08-23T23:32:14.106Z,6.23
2018-08-23T23:33:49.714Z,5.70
2018-08-23T23:35:27.187Z,5.70
2018-08-23T23:37:02.754Z,5.50
2018-08-23T23:38:38.314Z,5.10
2018-08-23T23:40:14.919Z,5.33
2018-08-23T23:41:50.797Z,5.07
2018-08-23T23:43:26.371Z,5.30
2018-08-23T23:45:01.912Z,5.23
2018-08-23T23:46:37.443Z,5.67
2018-08-23T23:48:14.615Z,6.00
2018-08-23T23:49:50.260Z,5.53
2018-08-23T23:51:26.155Z,5.47
2018-08-23T23:53:01.695Z,5.90
2018-08-23T23:54:37.227Z,5.50
2018-08-23T23:56:12.972Z,5.60
2018-08-23T23:57:48.581Z,5.90
2018-08-23T23:59:24.329Z,5.90
